createdAt,value
2022-08-14T00:02:27.387Z,4.30
2022-08-14T00:04:57.123Z,4.28
2022-08-14T00:07:25.103Z,4.35
2022-08-14T00:10:01.736Z,4.22
2022-08-14T00:12:53.449Z,4.60
2022-08-14T00:15:29.911Z,4.28
2022-08-14T00:18:14.283Z,4.50
2022-08-14T00:20:44.946Z,4.25
2022-08-14T00:23:18.011Z,4.32
2022-08-14T00:25:58.817Z,4.20
2022-08-14T00:28:35.313Z,3.83
2022-08-14T00:31:06.634Z,4.53
2022-08-14T00:33:51.914Z,4.05
2022-08-14T00:36:35.133Z,5.07
2022-08-14T00:39:09.304Z,4.22
2022-08-14T00:41:39.041Z,4.53
2022-08-14T00:44:08.101Z,4.22
2022-08-14T00:46:37.936Z,4.15
2022-08-14T00:49:08.106Z,4.88
2022-08-14T00:51:41.882Z,4.40
2022-08-14T00:54:16.844Z,4.53
2022-08-14T00:56:51.584Z,4.10
2022-08-14T00:59:24.755Z,4.38
2022-08-14T01:01:55.022Z,4.20
2022-08-14T01:04:51.044Z,4.57
2022-08-14T01:07:21.155Z,4.53
2022-08-14T01:09:51.602Z,4.45
2022-08-14T01:12:26.756Z,4.50
2022-08-14T01:14:59.270Z,4.60
2022-08-14T01:17:50.822Z,4.43
2022-08-14T01:20:40.476Z,4.85
2022-08-14T01:23:16.431Z,4.93
2022-08-14T01:25:48.366Z,4.55
2022-08-14T01:28:46.408Z,4.47
2022-08-14T01:31:08.645Z,4.63
2022-08-14T01:33:59.911Z,4.93
2022-08-14T01:36:35.474Z,4.55
2022-08-14T01:39:12.617Z,4.93
2022-08-14T01:41:42.422Z,4.38
2022-08-14T01:44:32.319Z,5.25
2022-08-14T01:47:05.915Z,5.55
2022-08-14T01:49:35.765Z,4.80
2022-08-14T01:52:33.612Z,5.30
2022-08-14T01:55:06.754Z,5.07
2022-08-14T01:58:00.496Z,5.00
2022-08-14T02:00:27.609Z,5.10
2022-08-14T02:02:57.053Z,5.30
2022-08-14T02:05:29.437Z,5.28
2022-08-14T02:08:09.507Z,5.03
2022-08-14T02:10:46.253Z,5.45
2022-08-14T02:13:16.850Z,5.10
2022-08-14T02:15:48.461Z,5.10
2022-08-14T02:18:18.171Z,5.15
2022-08-14T02:20:48.730Z,4.95
2022-08-14T02:23:28.863Z,5.07
2022-08-14T02:28:59.521Z,4.72
2022-08-14T02:31:41.954Z,5.22
2022-08-14T02:34:21.948Z,4.88
2022-08-14T02:37:04.410Z,4.90
2022-08-14T02:39:36.243Z,4.90
2022-08-14T02:42:13.328Z,5.40
2022-08-14T02:44:49.078Z,5.10
2022-08-14T02:47:20.609Z,5.18
2022-08-14T02:49:54.656Z,5.10
2022-08-14T02:54:55.961Z,5.18
2022-08-14T02:57:40.214Z,4.82
2022-08-14T03:00:10.651Z,4.72
2022-08-14T03:02:56.135Z,4.70
2022-08-14T03:05:36.236Z,4.47
2022-08-14T03:08:07.814Z,4.70
2022-08-14T03:10:36.954Z,4.65
2022-08-14T03:13:19.320Z,5.00
2022-08-14T03:15:55.542Z,5.03
2022-08-14T03:18:31.889Z,4.82
2022-08-14T03:21:05.059Z,4.78
2022-08-14T03:23:38.081Z,4.30
2022-08-14T03:26:08.447Z,4.90
2022-08-14T03:28:40.421Z,5.18
2022-08-14T03:31:13.322Z,5.03
2022-08-14T03:33:43.126Z,4.78
2022-08-14T03:37:50.961Z,4.22
2022-08-14T03:39:13.230Z,4.45
2022-08-14T03:41:46.593Z,4.32
2022-08-14T03:45:20.164Z,5.05
2022-08-14T03:47:03.821Z,5.13
2022-08-14T03:49:34.013Z,5.38
2022-08-14T03:52:07.755Z,5.20
2022-08-14T03:54:52.914Z,4.90
2022-08-14T03:57:22.579Z,4.53
2022-08-14T03:59:52.336Z,5.00
2022-08-14T04:02:32.655Z,5.10
2022-08-14T04:05:08.189Z,5.60
2022-08-14T04:07:49.406Z,5.20
2022-08-14T04:10:32.074Z,5.93
2022-08-14T04:13:03.504Z,5.10
2022-08-14T04:15:52.686Z,5.05
2022-08-14T04:18:21.845Z,5.63
2022-08-14T04:20:54.903Z,5.28
2022-08-14T04:23:29.858Z,5.55
2022-08-14T04:26:04.749Z,5.13
2022-08-14T04:29:06.969Z,4.95
2022-08-14T04:32:57.472Z,4.78
2022-08-14T04:34:20.769Z,4.70
2022-08-14T04:37:10.658Z,4.78
2022-08-14T04:39:57.300Z,4.30
2022-08-14T04:42:47.668Z,4.40
2022-08-14T04:48:10.082Z,4.55
2022-08-14T04:50:45.135Z,4.75
2022-08-14T04:53:16.445Z,4.45
2022-08-14T04:55:50.044Z,4.72
2022-08-14T04:58:33.069Z,4.55
2022-08-14T05:01:12.888Z,4.47
2022-08-14T05:03:49.608Z,4.55
2022-08-14T05:06:37.602Z,4.43
2022-08-14T05:09:06.799Z,4.18
2022-08-14T05:11:36.710Z,4.18
2022-08-14T05:14:33.736Z,4.28
2022-08-14T05:16:53.657Z,3.88
2022-08-14T05:19:29.567Z,4.32
2022-08-14T05:22:15.786Z,3.70
2022-08-14T05:24:48.728Z,3.72
2022-08-14T05:27:22.201Z,3.78
2022-08-14T05:29:51.819Z,4.05
2022-08-14T05:32:19.798Z,3.70
2022-08-14T05:34:49.452Z,3.83
2022-08-14T05:37:17.331Z,3.80
2022-08-14T05:39:45.220Z,3.33
2022-08-14T05:42:22.296Z,3.67
2022-08-14T05:44:55.770Z,3.60
2022-08-14T05:47:24.009Z,3.47
2022-08-14T05:49:53.275Z,3.55
2022-08-14T05:52:26.493Z,3.20
2022-08-14T05:55:09.744Z,3.60
2022-08-14T05:57:49.558Z,3.53
2022-08-14T06:00:25.033Z,3.45
2022-08-14T06:02:57.338Z,3.20
2022-08-14T06:05:29.122Z,3.28
2022-08-14T06:07:57.865Z,3.38
2022-08-14T06:10:28.191Z,3.50
2022-08-14T06:12:58.203Z,3.53
2022-08-14T06:15:30.112Z,3.38
2022-08-14T06:18:00.486Z,3.33
2022-08-14T06:20:31.194Z,3.58
2022-08-14T06:22:59.809Z,3.35
2022-08-14T06:25:28.633Z,3.80
2022-08-14T06:27:58.087Z,3.92
2022-08-14T06:30:46.117Z,4.80
2022-08-14T06:33:16.284Z,4.63
2022-08-14T06:35:48.483Z,3.92
2022-08-14T06:38:18.882Z,4.13
2022-08-14T06:40:47.172Z,4.38
2022-08-14T06:43:19.087Z,3.97
2022-08-14T06:45:53.789Z,3.47
2022-08-14T06:48:24.587Z,4.35
2022-08-14T06:50:55.185Z,3.47
2022-08-14T06:53:28.173Z,3.92
2022-08-14T06:56:01.067Z,3.88
2022-08-14T06:58:32.148Z,3.42
2022-08-14T07:01:24.956Z,3.75
2022-08-14T07:04:22.730Z,4.28
2022-08-14T07:06:55.432Z,4.45
2022-08-14T07:09:24.259Z,4.00
2022-08-14T07:11:52.597Z,4.22
2022-08-14T07:14:20.470Z,4.13
2022-08-14T07:16:48.353Z,4.03
2022-08-14T07:19:20.940Z,4.35
2022-08-14T07:21:50.317Z,4.57
2022-08-14T07:24:22.127Z,4.30
2022-08-14T07:26:59.148Z,4.82
2022-08-14T07:29:28.792Z,5.07
2022-08-14T07:31:57.110Z,4.90
2022-08-14T07:34:36.241Z,5.20
2022-08-14T07:37:08.670Z,5.25
2022-08-14T07:39:39.237Z,2.70
2022-08-14T07:42:11.439Z,2.45
2022-08-14T07:44:45.967Z,2.70
2022-08-14T07:47:16.621Z,2.58
2022-08-14T07:49:55.421Z,2.50
2022-08-14T07:52:30.693Z,2.40
2022-08-14T07:55:02.267Z,2.65
2022-08-14T07:57:30.202Z,2.88
2022-08-14T07:59:58.079Z,2.45
2022-08-14T08:02:32.452Z,2.85
2022-08-14T08:05:02.509Z,2.25
2022-08-14T08:07:31.734Z,2.45
2022-08-14T08:10:45.984Z,2.42
2022-08-14T08:13:16.613Z,2.40
2022-08-14T08:15:48.157Z,2.40
2022-08-14T08:18:20.230Z,2.42
2022-08-14T08:20:59.248Z,2.50
2022-08-14T08:23:40.068Z,2.50
2022-08-14T08:26:10.237Z,2.70
2022-08-14T08:28:38.245Z,2.63
2022-08-14T08:31:13.222Z,2.60
2022-08-14T08:33:43.525Z,2.50
2022-08-14T08:36:18.669Z,2.70
2022-08-14T08:39:18.226Z,2.67
2022-08-14T08:41:43.763Z,2.60
2022-08-14T08:44:17.273Z,2.50
2022-08-14T08:47:05.118Z,3.10
2022-08-14T08:49:43.164Z,2.63
2022-08-14T08:52:25.592Z,2.60
2022-08-14T08:55:00.738Z,2.42
2022-08-14T08:57:35.829Z,3.08
2022-08-14T09:00:25.619Z,2.65
2022-08-14T09:02:57.440Z,2.60
2022-08-14T09:05:26.314Z,2.50
2022-08-14T09:07:56.503Z,2.92
2022-08-14T09:10:25.919Z,2.63
2022-08-14T09:12:57.389Z,2.60
2022-08-14T09:15:25.645Z,2.63
2022-08-14T09:18:04.917Z,3.08
2022-08-14T09:20:33.396Z,2.92
2022-08-14T09:23:06.166Z,2.70
2022-08-14T09:25:58.715Z,2.80
2022-08-14T09:28:24.392Z,3.00
2022-08-14T09:30:55.336Z,3.00
2022-08-14T09:33:56.117Z,2.95
2022-08-14T09:36:45.400Z,2.72
2022-08-14T09:39:24.223Z,2.90
2022-08-14T09:42:20.904Z,3.60
2022-08-14T09:45:11.534Z,2.85
2022-08-14T09:47:51.947Z,2.92
2022-08-14T09:50:25.930Z,2.70
2022-08-14T09:52:57.415Z,3.45
2022-08-14T09:55:28.051Z,2.90
2022-08-14T09:58:09.965Z,3.05
2022-08-14T10:00:50.416Z,3.03
2022-08-14T10:03:30.244Z,3.00
2022-08-14T10:06:09.483Z,2.90
2022-08-14T10:08:50.835Z,3.20
2022-08-14T10:11:23.217Z,2.75
2022-08-14T10:13:55.743Z,2.78
2022-08-14T10:16:33.699Z,3.05
2022-08-14T10:19:07.277Z,3.00
2022-08-14T10:21:38.861Z,2.80
2022-08-14T10:24:36.462Z,2.85
2022-08-14T10:27:16.309Z,2.77
2022-08-14T10:29:46.095Z,2.92
2022-08-14T10:32:17.798Z,2.70
2022-08-14T10:35:06.746Z,3.00
2022-08-14T10:37:46.408Z,2.90
2022-08-14T10:40:38.034Z,3.08
2022-08-14T10:43:05.319Z,2.50
2022-08-14T10:45:42.129Z,2.95
2022-08-14T10:48:34.461Z,2.80
2022-08-14T10:51:08.463Z,2.72
2022-08-14T10:53:40.037Z,2.60
2022-08-14T10:56:22.058Z,2.45
2022-08-14T10:59:02.666Z,2.60
2022-08-14T11:01:32.703Z,2.63
2022-08-14T11:04:25.822Z,2.72
2022-08-14T11:06:56.545Z,2.67
2022-08-14T11:09:26.351Z,2.33
2022-08-14T11:12:33.770Z,2.58
2022-08-14T11:14:59.558Z,2.58
2022-08-14T11:17:32.242Z,2.30
2022-08-14T11:20:03.716Z,2.28
2022-08-14T11:22:55.604Z,2.00
2022-08-14T11:25:23.618Z,2.35
2022-08-14T11:27:53.382Z,2.35
2022-08-14T11:30:53.622Z,2.40
2022-08-14T11:33:13.154Z,2.30
2022-08-14T11:35:43.933Z,2.28
2022-08-14T11:38:16.403Z,2.17
2022-08-14T11:40:46.812Z,1.90
2022-08-14T11:43:16.267Z,1.90
2022-08-14T11:45:48.782Z,2.08
2022-08-14T11:49:04.167Z,1.92
2022-08-14T11:51:24.243Z,2.13
2022-08-14T11:53:55.214Z,2.45
2022-08-14T11:56:25.834Z,2.00
2022-08-14T11:58:58.717Z,2.40
2022-08-14T12:01:28.727Z,2.10
2022-08-14T12:03:59.110Z,2.13
2022-08-14T12:09:08.842Z,2.30
2022-08-14T12:11:46.976Z,2.60
2022-08-14T12:14:29.764Z,2.35
2022-08-14T12:17:04.136Z,2.03
2022-08-14T12:19:33.782Z,2.20
2022-08-14T12:22:06.735Z,2.40
2022-08-14T12:24:40.196Z,2.20
2022-08-14T12:27:08.878Z,2.13
2022-08-14T12:29:42.659Z,2.20
2022-08-14T12:32:12.655Z,2.20
2022-08-14T12:34:41.878Z,2.22
2022-08-14T12:37:14.672Z,2.33
2022-08-14T12:39:42.754Z,2.22
2022-08-14T12:42:11.835Z,2.20
2022-08-14T12:45:03.913Z,2.10
2022-08-14T12:47:32.503Z,2.35
2022-08-14T12:50:01.401Z,2.10
2022-08-14T12:52:42.987Z,2.30
2022-08-14T12:55:21.782Z,2.00
2022-08-14T12:57:53.708Z,2.20
2022-08-14T13:00:24.429Z,2.10
2022-08-14T13:02:56.537Z,2.50
2022-08-14T13:05:27.503Z,2.45
2022-08-14T13:07:59.284Z,2.55
2022-08-14T13:10:45.849Z,2.40
2022-08-14T13:13:18.400Z,2.28
2022-08-14T13:15:57.211Z,2.13
2022-08-14T13:18:27.945Z,2.17
2022-08-14T13:21:00.957Z,2.40
2022-08-14T13:23:36.190Z,2.00
2022-08-14T13:26:05.294Z,2.10
2022-08-14T13:28:41.340Z,2.10
2022-08-14T13:31:30.043Z,2.10
2022-08-14T13:34:00.094Z,2.00
2022-08-14T13:36:54.500Z,2.08
2022-08-14T13:39:18.365Z,1.90
2022-08-14T13:41:47.661Z,1.80
2022-08-14T13:44:28.648Z,1.88
2022-08-14T13:49:26.424Z,2.17
2022-08-14T13:52:02.154Z,2.13
2022-08-14T13:54:46.453Z,1.92
2022-08-14T13:57:30.436Z,1.80
2022-08-14T14:00:02.707Z,1.75
2022-08-14T14:02:42.529Z,2.10
2022-08-14T14:05:19.151Z,2.13
2022-08-14T14:07:53.059Z,1.40
2022-08-14T14:10:28.600Z,2.88
2022-08-14T14:12:56.762Z,1.90
2022-08-14T14:15:33.758Z,1.90
2022-08-14T14:18:29.937Z,1.90
2022-08-14T14:21:02.599Z,1.90
2022-08-14T14:23:31.199Z,1.92
2022-08-14T14:26:03.615Z,1.80
2022-08-14T14:28:33.207Z,3.53
2022-08-14T14:31:06.922Z,1.98
2022-08-14T14:33:52.042Z,2.05
2022-08-14T14:36:23.313Z,2.00
2022-08-14T14:38:54.327Z,1.38
2022-08-14T14:41:24.696Z,1.80
2022-08-14T14:43:54.305Z,1.85
2022-08-14T14:46:36.599Z,2.00
2022-08-14T14:49:07.744Z,2.03
2022-08-14T14:51:41.131Z,1.90
2022-08-14T14:54:13.181Z,1.95
2022-08-14T14:56:51.481Z,2.03
2022-08-14T14:59:21.830Z,2.00
2022-08-14T15:01:52.980Z,1.90
2022-08-14T15:04:21.404Z,2.08
2022-08-14T15:06:50.006Z,1.88
2022-08-14T15:09:18.455Z,1.85
2022-08-14T15:11:49.841Z,1.90
2022-08-14T15:14:55.276Z,1.80
2022-08-14T15:17:06.502Z,1.92
2022-08-14T15:19:34.810Z,1.73
2022-08-14T15:22:03.524Z,1.85
2022-08-14T15:24:31.589Z,1.50
2022-08-14T15:27:06.675Z,1.55
2022-08-14T15:29:38.680Z,1.85
2022-08-14T15:32:11.413Z,2.10
2022-08-14T15:34:44.706Z,2.30
2022-08-14T15:37:16.893Z,2.90
2022-08-14T15:39:45.481Z,2.50
2022-08-14T15:42:16.698Z,2.72
2022-08-14T15:44:57.998Z,2.47
2022-08-14T15:47:31.241Z,2.30
2022-08-14T15:50:01.241Z,3.70
2022-08-14T15:52:44.837Z,3.65
2022-08-14T15:55:16.214Z,3.40
2022-08-14T15:58:02.472Z,3.65
2022-08-14T16:01:01.819Z,3.40
2022-08-14T16:03:37.188Z,3.63
2022-08-14T16:06:15.514Z,3.92
2022-08-14T16:08:50.401Z,3.58
2022-08-14T16:11:28.669Z,3.60
2022-08-14T16:14:01.940Z,3.05
2022-08-14T16:16:51.082Z,3.10
2022-08-14T16:19:24.368Z,3.08
2022-08-14T16:22:01.554Z,3.38
2022-08-14T16:25:00.092Z,3.25
2022-08-14T16:27:34.265Z,3.50
2022-08-14T16:30:25.075Z,3.67
2022-08-14T16:32:57.233Z,3.40
2022-08-14T16:35:43.409Z,3.90
2022-08-14T16:38:19.599Z,4.28
2022-08-14T16:41:23.398Z,3.75
2022-08-14T16:43:59.112Z,3.92
2022-08-14T16:46:32.527Z,3.83
2022-08-14T16:49:01.554Z,3.80
2022-08-14T16:51:31.019Z,3.55
2022-08-14T16:54:34.568Z,3.53
2022-08-14T16:56:54.761Z,3.88
2022-08-14T16:59:30.331Z,3.90
2022-08-14T17:02:13.669Z,4.03
2022-08-14T17:04:49.144Z,4.70
2022-08-14T17:07:17.588Z,3.85
2022-08-14T17:09:48.433Z,4.13
2022-08-14T17:12:28.570Z,4.45
2022-08-14T17:15:10.448Z,4.22
2022-08-14T17:17:50.026Z,4.25
2022-08-14T17:20:39.351Z,4.13
2022-08-14T17:23:14.367Z,3.88
2022-08-14T17:25:49.332Z,4.00
2022-08-14T17:28:51.835Z,4.65
2022-08-14T17:31:08.774Z,4.13
2022-08-14T17:33:40.621Z,4.25
2022-08-14T17:36:21.352Z,3.88
2022-08-14T17:39:02.619Z,4.45
2022-08-14T17:41:37.680Z,3.80
2022-08-14T17:44:22.019Z,4.25
2022-08-14T17:47:03.010Z,4.18
2022-08-14T17:49:33.808Z,4.50
2022-08-14T17:52:07.510Z,4.53
2022-08-14T17:54:47.434Z,4.53
2022-08-14T17:57:23.128Z,4.13
2022-08-14T17:59:52.794Z,4.97
2022-08-14T18:02:25.066Z,4.53
2022-08-14T18:05:03.076Z,4.70
2022-08-14T18:07:59.412Z,4.50
2022-08-14T18:10:51.947Z,4.32
2022-08-14T18:13:10.787Z,4.30
2022-08-14T18:15:41.227Z,4.68
2022-08-14T18:18:11.342Z,4.72
2022-08-14T18:21:39.925Z,4.20
2022-08-14T18:23:31.080Z,4.30
2022-08-14T18:26:00.708Z,4.38
2022-08-14T18:28:51.582Z,4.70
2022-08-14T18:31:42.258Z,4.93
2022-08-14T18:34:31.048Z,4.50
2022-08-14T18:37:16.662Z,4.38
2022-08-14T18:40:01.798Z,4.78
2022-08-14T18:42:44.012Z,4.65
2022-08-14T18:45:16.091Z,5.07
2022-08-14T18:48:14.363Z,4.95
2022-08-14T18:50:52.183Z,4.65
2022-08-14T18:53:24.793Z,4.85
2022-08-14T18:56:01.861Z,5.00
2022-08-14T18:58:46.044Z,5.40
2022-08-14T19:01:25.343Z,5.25
2022-08-14T19:03:56.050Z,5.13
2022-08-14T19:06:43.428Z,4.80
2022-08-14T19:09:50.346Z,4.60
2022-08-14T19:13:03.040Z,5.32
2022-08-14T19:15:34.256Z,5.10
2022-08-14T19:18:17.945Z,4.35
2022-08-14T19:20:56.600Z,5.30
2022-08-14T19:23:43.185Z,4.82
2022-08-14T19:26:36.224Z,5.15
2022-08-14T19:29:36.258Z,4.85
2022-08-14T19:32:40.740Z,4.93
2022-08-14T19:35:55.299Z,4.90
2022-08-14T19:38:47.864Z,4.88
2022-08-14T19:41:17.601Z,5.68
2022-08-14T19:43:50.679Z,5.38
2022-08-14T19:46:38.884Z,4.57
2022-08-14T19:49:23.347Z,5.05
2022-08-14T19:52:20.779Z,4.80
2022-08-14T19:54:51.208Z,5.18
2022-08-14T19:57:21.416Z,5.00
2022-08-14T20:00:01.045Z,5.15
2022-08-14T20:02:41.880Z,5.32
2022-08-14T20:05:12.263Z,5.38
2022-08-14T20:08:00.428Z,5.53
2022-08-14T20:11:06.716Z,5.20
2022-08-14T20:13:32.296Z,6.05
2022-08-14T20:16:12.009Z,5.25
2022-08-14T20:18:49.317Z,5.15
2022-08-14T20:21:19.900Z,5.60
2022-08-14T20:23:49.991Z,5.63
2022-08-14T20:26:31.341Z,5.40
2022-08-14T20:29:04.518Z,6.00
2022-08-14T20:31:36.728Z,5.70
2022-08-14T20:34:24.989Z,6.15
2022-08-14T20:37:04.225Z,5.70
2022-08-14T20:39:36.080Z,5.95
2022-08-14T20:42:31.551Z,5.80
2022-08-14T20:45:21.557Z,5.28
2022-08-14T20:48:01.097Z,5.78
2022-08-14T20:50:31.861Z,5.60
2022-08-14T20:53:00.768Z,6.25
2022-08-14T20:55:41.526Z,5.85
2022-08-14T20:58:42.204Z,6.25
2022-08-14T21:01:33.722Z,5.97
2022-08-14T21:04:12.007Z,6.55
2022-08-14T21:07:23.245Z,6.00
2022-08-14T21:10:05.060Z,6.97
2022-08-14T21:12:33.697Z,19.48
2022-08-14T21:15:03.493Z,10.40
2022-08-14T21:17:37.538Z,7.35
2022-08-14T21:20:26.526Z,7.13
2022-08-14T21:23:00.410Z,7.20
2022-08-14T21:25:31.528Z,6.78
2022-08-14T21:28:04.041Z,7.22
2022-08-14T21:30:46.888Z,7.13
2022-08-14T21:33:21.945Z,6.97
2022-08-14T21:35:55.661Z,6.72
2022-08-14T21:38:33.764Z,7.07
2022-08-14T21:41:42.913Z,6.57
2022-08-14T21:44:17.618Z,6.63
2022-08-14T21:49:20.995Z,6.80
2022-08-14T21:51:59.973Z,6.95
2022-08-14T21:54:49.267Z,7.10
2022-08-14T21:58:44.709Z,7.85
2022-08-14T22:00:30.309Z,7.57
2022-08-14T22:03:04.490Z,8.07
2022-08-14T22:05:34.002Z,7.38
2022-08-14T22:08:07.308Z,7.80
2022-08-14T22:10:37.049Z,7.43
2022-08-14T22:13:05.283Z,7.07
2022-08-14T22:15:35.480Z,7.10
2022-08-14T22:18:05.131Z,7.53
2022-08-14T22:20:36.344Z,7.15
2022-08-14T22:23:08.676Z,7.45
2022-08-14T22:25:40.955Z,6.97
2022-08-14T22:28:12.977Z,7.45
2022-08-14T22:30:41.712Z,6.90
2022-08-14T22:33:13.575Z,6.88
2022-08-14T22:35:43.856Z,7.00
2022-08-14T22:38:36.243Z,6.57
2022-08-14T22:41:25.922Z,6.57
2022-08-14T22:43:50.997Z,7.03
2022-08-14T22:46:20.416Z,6.20
2022-08-14T22:48:49.795Z,6.78
2022-08-14T22:51:22.002Z,6.50
2022-08-14T22:53:53.203Z,7.35
2022-08-14T22:56:28.997Z,7.30
2022-08-14T22:59:00.117Z,6.95
2022-08-14T23:01:56.024Z,7.07
2022-08-14T23:04:35.477Z,7.22
2022-08-14T23:07:21.848Z,7.13
2022-08-14T23:09:56.740Z,6.90
2022-08-14T23:12:31.538Z,7.03
2022-08-14T23:15:00.414Z,6.15
2022-08-14T23:17:39.607Z,6.88
2022-08-14T23:20:12.962Z,6.80
2022-08-14T23:22:51.830Z,6.40
2022-08-14T23:25:56.921Z,7.00
2022-08-14T23:28:34.417Z,6.82
2022-08-14T23:30:58.371Z,7.03
2022-08-14T23:33:29.157Z,6.65
2022-08-14T23:35:58.724Z,7.35
2022-08-14T23:38:30.903Z,7.13
2022-08-14T23:41:00.635Z,6.53
2022-08-14T23:43:31.045Z,6.75
2022-08-14T23:46:00.625Z,6.00
2022-08-14T23:48:29.422Z,6.35
2022-08-14T23:51:00.090Z,5.97
2022-08-14T23:53:47.838Z,5.82
2022-08-14T23:56:18.780Z,6.07
2022-08-14T23:58:49.176Z,6.70
